createdAt,value
2023-04-18T00:00:43.224Z,99415.00
2023-04-18T00:03:10.334Z,99415.97
2023-04-18T00:05:38.053Z,99416.81
2023-04-18T00:08:05.682Z,99415.75
2023-04-18T00:10:33.278Z,99420.66
2023-04-18T00:13:00.519Z,99414.91
2023-04-18T00:15:29.314Z,99417.88
2023-04-18T00:18:00.967Z,99408.28
2023-04-18T00:20:27.951Z,99409.00
2023-04-18T00:22:55.087Z,99410.09
2023-04-18T00:25:22.043Z,99408.91
2023-04-18T00:27:48.868Z,99408.75
2023-04-18T00:30:15.757Z,99409.13
2023-04-18T00:32:42.818Z,99409.13
2023-04-18T00:35:09.839Z,99406.38
2023-04-18T00:37:37.495Z,99411.78
2023-04-18T00:40:05.674Z,99406.47
2023-04-18T00:42:33.398Z,99401.66
2023-04-18T00:45:00.390Z,99394.00
2023-04-18T00:47:27.260Z,99398.56
2023-04-18T00:49:55.350Z,99395.81
2023-04-18T00:52:22.509Z,99393.03
2023-04-18T00:54:49.799Z,99380.19
2023-04-18T00:57:16.631Z,99376.81
2023-04-18T00:59:43.788Z,99392.44
2023-04-18T01:02:11.284Z,99386.53
2023-04-18T01:04:38.791Z,99380.66
2023-04-18T01:07:09.483Z,99377.06
2023-04-18T01:09:37.031Z,99377.41
2023-04-18T01:12:04.385Z,99380.66
2023-04-18T01:14:31.399Z,99386.53
2023-04-18T01:16:58.831Z,99382.94
2023-04-18T01:19:25.844Z,99383.16
2023-04-18T01:21:54.269Z,99385.81
2023-04-18T01:24:24.598Z,99381.03
2023-04-18T01:26:51.686Z,99384.13
2023-04-18T01:29:18.516Z,99384.50
2023-04-18T01:31:46.129Z,99383.81
2023-04-18T01:34:17.805Z,99374.31
2023-04-18T01:36:46.082Z,99373.69
2023-04-18T01:39:14.042Z,99374.16
2023-04-18T01:41:42.070Z,99381.16
2023-04-18T01:44:09.861Z,99381.03
2023-04-18T01:46:36.971Z,99379.34
2023-04-18T01:49:03.844Z,99379.34
2023-04-18T01:51:31.431Z,99379.69
2023-04-18T01:53:58.275Z,99384.59
2023-04-18T01:56:25.127Z,99382.13
2023-04-18T01:58:52.232Z,99394.72
2023-04-18T02:01:19.189Z,99387.97
2023-04-18T02:03:46.498Z,99388.09
2023-04-18T02:06:13.462Z,99387.75
2023-04-18T02:08:40.452Z,99389.69
2023-04-18T02:11:07.322Z,99384.41
2023-04-18T02:13:34.142Z,99387.16
2023-04-18T02:16:06.270Z,99391.22
2023-04-18T02:18:34.602Z,99378.03
2023-04-18T02:21:01.466Z,99381.28
2023-04-18T02:23:28.426Z,99393.88
2023-04-18T02:25:55.732Z,99389.31
2023-04-18T02:28:22.520Z,99382.72
2023-04-18T02:30:49.409Z,99397.13
2023-04-18T02:33:16.345Z,99394.72
2023-04-18T02:35:43.130Z,99398.78
2023-04-18T02:38:09.958Z,99399.03
2023-04-18T02:40:36.805Z,99402.19
2023-04-18T02:43:03.731Z,99397.72
2023-04-18T02:45:30.611Z,99402.38
2023-04-18T02:47:59.807Z,99396.25
2023-04-18T02:50:27.177Z,99392.81
2023-04-18T02:52:56.143Z,99393.50
2023-04-18T02:55:32.851Z,99400.13
2023-04-18T02:58:01.145Z,99395.91
2023-04-18T03:00:55.777Z,99401.53
2023-04-18T03:03:42.965Z,99403.94
2023-04-18T03:06:32.759Z,99399.03
2023-04-18T03:09:02.772Z,99406.97
2023-04-18T03:11:31.650Z,99403.59
2023-04-18T03:13:59.008Z,99405.88
2023-04-18T03:16:32.297Z,99411.88
2023-04-18T03:18:59.634Z,99403.84
2023-04-18T03:21:27.841Z,99416.78
2023-04-18T03:23:54.916Z,99409.97
2023-04-18T03:26:22.917Z,99406.75
2023-04-18T03:28:52.001Z,99412.03
2023-04-18T03:31:19.489Z,99414.53
2023-04-18T03:33:47.127Z,99415.97
2023-04-18T03:36:18.178Z,99406.97
2023-04-18T03:38:46.028Z,99413.94
2023-04-18T03:41:12.934Z,99408.16
2023-04-18T03:43:39.826Z,99407.31
2023-04-18T03:46:06.883Z,99401.06
2023-04-18T03:48:37.313Z,99406.97
2023-04-18T03:51:09.058Z,99404.19
2023-04-18T03:53:37.131Z,99406.97
2023-04-18T03:56:04.183Z,99407.47
2023-04-18T03:58:45.248Z,99408.88
2023-04-18T04:01:12.909Z,99408.41
2023-04-18T04:03:40.206Z,99404.69
2023-04-18T04:06:07.572Z,99410.69
2023-04-18T04:08:34.414Z,99417.16
2023-04-18T04:11:02.069Z,99418.97
2023-04-18T04:13:29.462Z,99422.78
2023-04-18T04:15:57.225Z,99428.09
2023-04-18T04:18:30.965Z,99434.59
2023-04-18T04:21:00.380Z,99430.13
2023-04-18T04:23:48.203Z,99428.94
2023-04-18T04:26:27.676Z,99426.31
2023-04-18T04:29:06.154Z,99435.53
2023-04-18T04:31:34.365Z,99432.44
2023-04-18T04:34:01.892Z,99436.63
2023-04-18T04:36:28.876Z,99436.63
2023-04-18T04:38:58.157Z,99430.00
2023-04-18T04:41:32.997Z,99433.63
2023-04-18T04:44:01.928Z,99435.41
2023-04-18T04:46:31.910Z,99436.50
2023-04-18T04:49:01.104Z,99446.00
2023-04-18T04:51:28.095Z,99435.91
2023-04-18T04:53:55.715Z,99444.44
2023-04-18T04:56:23.523Z,99438.56
2023-04-18T04:58:50.597Z,99445.28
2023-04-18T05:01:24.368Z,99448.16
2023-04-18T05:03:52.787Z,99452.59
2023-04-18T05:06:20.950Z,99448.16
2023-04-18T05:08:48.424Z,99448.19
2023-04-18T05:11:16.289Z,99446.09
2023-04-18T05:13:43.256Z,99449.34
2023-04-18T05:16:10.163Z,99444.19
2023-04-18T05:18:41.463Z,99442.41
2023-04-18T05:21:08.526Z,99443.97
2023-04-18T05:23:37.227Z,99452.50
2023-04-18T05:26:05.575Z,99449.72
2023-04-18T05:28:32.969Z,99442.41
2023-04-18T05:31:02.544Z,99436.53
2023-04-18T05:33:30.196Z,99433.28
2023-04-18T05:35:58.142Z,99449.00
2023-04-18T05:38:25.585Z,99445.88
2023-04-18T05:40:55.627Z,99445.91
2023-04-18T05:43:23.010Z,99439.88
2023-04-18T05:45:52.404Z,99445.53
2023-04-18T05:48:19.689Z,99444.69
2023-04-18T05:50:46.762Z,99451.63
2023-04-18T05:53:13.675Z,99455.50
2023-04-18T05:55:41.178Z,99449.72
2023-04-18T05:58:08.073Z,99451.72
2023-04-18T06:00:35.901Z,99443.81
2023-04-18T06:03:02.945Z,99456.31
2023-04-18T06:05:30.378Z,99448.66
2023-04-18T06:07:57.751Z,99451.25
2023-04-18T06:10:24.682Z,99443.69
2023-04-18T06:12:51.513Z,99444.50
2023-04-18T06:15:18.491Z,99448.72
2023-04-18T06:17:45.455Z,99439.56
2023-04-18T06:20:12.495Z,99447.44
2023-04-18T06:22:39.391Z,99450.47
2023-04-18T06:25:08.891Z,99451.19
2023-04-18T06:27:36.937Z,99453.50
2023-04-18T06:30:07.081Z,99450.00
2023-04-18T06:32:34.267Z,99445.22
2023-04-18T06:35:04.399Z,99448.53
2023-04-18T06:37:31.511Z,99444.72
2023-04-18T06:39:58.778Z,99458.28
2023-04-18T06:42:25.693Z,99452.84
2023-04-18T06:45:02.822Z,99450.47
2023-04-18T06:47:30.533Z,99446.72
2023-04-18T06:49:57.399Z,99444.44
2023-04-18T06:52:24.202Z,99451.63
2023-04-18T06:54:51.049Z,99451.00
2023-04-18T06:57:17.974Z,99441.41
2023-04-18T06:59:44.876Z,99451.59
2023-04-18T07:02:11.755Z,99455.84
2023-04-18T07:04:38.764Z,99454.97
2023-04-18T07:07:05.849Z,99456.91
2023-04-18T07:09:32.764Z,99447.91
2023-04-18T07:11:59.666Z,99447.59
2023-04-18T07:14:26.538Z,99449.56
2023-04-18T07:16:53.488Z,99446.19
2023-04-18T07:19:20.366Z,99455.16
2023-04-18T07:21:47.355Z,99451.53
2023-04-18T07:24:14.622Z,99448.53
2023-04-18T07:26:41.694Z,99449.66
2023-04-18T07:29:08.564Z,99444.94
2023-04-18T07:31:35.529Z,99449.41
2023-04-18T07:34:02.466Z,99444.69
2023-04-18T07:36:29.402Z,99441.31
2023-04-18T07:38:56.213Z,99437.78
2023-04-18T07:41:23.136Z,99444.09
2023-04-18T07:43:49.951Z,99443.09
2023-04-18T07:46:17.073Z,99443.13
2023-04-18T07:48:44.457Z,99437.28
2023-04-18T07:51:11.963Z,99429.75
2023-04-18T07:53:41.027Z,99435.22
2023-04-18T07:56:07.966Z,99437.22
2023-04-18T07:58:35.222Z,99436.38
2023-04-18T08:01:02.895Z,99443.09
2023-04-18T08:03:30.361Z,99450.91
2023-04-18T08:05:57.434Z,99447.25
2023-04-18T08:08:24.265Z,99445.00
2023-04-18T08:10:51.478Z,99445.28
2023-04-18T08:13:18.458Z,99447.25
2023-04-18T08:15:46.814Z,99448.44
2023-04-18T08:18:15.632Z,99451.63
2023-04-18T08:20:42.569Z,99447.41
2023-04-18T08:23:12.195Z,99457.19
2023-04-18T08:25:43.344Z,99453.28
2023-04-18T08:28:10.956Z,99450.34
2023-04-18T08:30:37.932Z,99451.03
2023-04-18T08:33:04.855Z,99440.44
2023-04-18T08:35:31.863Z,99440.13
2023-04-18T08:37:58.770Z,99431.63
2023-04-18T08:40:25.652Z,99447.25
2023-04-18T08:42:53.291Z,99468.34
2023-04-18T08:45:20.992Z,99472.81
2023-04-18T08:47:47.870Z,99471.00
2023-04-18T08:50:14.822Z,99470.25
2023-04-18T08:52:49.527Z,99467.75
2023-04-18T08:55:16.601Z,99468.81
2023-04-18T08:57:44.817Z,99455.28
2023-04-18T09:00:12.269Z,99448.75
2023-04-18T09:02:44.653Z,99459.13
2023-04-18T09:05:19.098Z,99467.28
2023-04-18T09:07:47.460Z,99470.31
2023-04-18T09:10:26.388Z,99459.69
2023-04-18T09:12:53.257Z,99476.03
2023-04-18T09:15:23.849Z,99465.56
2023-04-18T09:17:58.260Z,99476.72
2023-04-18T09:20:50.046Z,99456.13
2023-04-18T09:23:23.528Z,99482.41
2023-04-18T09:25:52.215Z,99492.31
2023-04-18T09:28:23.679Z,99500.28
2023-04-18T09:30:52.768Z,99492.25
2023-04-18T09:33:28.919Z,99510.84
2023-04-18T09:35:57.317Z,99491.06
2023-04-18T09:38:44.664Z,99483.66
2023-04-18T09:41:12.665Z,99486.38
2023-04-18T09:43:39.749Z,99491.78
2023-04-18T09:46:08.229Z,99490.41
2023-04-18T09:48:35.806Z,99494.56
2023-04-18T09:51:14.548Z,99488.25
2023-04-18T09:53:47.877Z,99503.00
2023-04-18T09:56:26.176Z,99505.50
2023-04-18T09:58:58.899Z,99505.91
2023-04-18T10:01:29.718Z,99509.81
2023-04-18T10:03:57.933Z,99503.28
2023-04-18T10:06:27.447Z,99513.16
2023-04-18T10:08:55.624Z,99521.63
2023-04-18T10:11:24.354Z,99521.56
2023-04-18T10:13:56.036Z,99515.53
2023-04-18T10:16:23.293Z,99514.97
2023-04-18T10:18:51.246Z,99505.81
2023-04-18T10:21:18.156Z,99509.03
2023-04-18T10:23:48.827Z,99500.00
2023-04-18T10:26:15.687Z,99506.59
2023-04-18T10:28:59.087Z,99503.22
2023-04-18T10:31:27.828Z,99504.38
2023-04-18T10:36:29.156Z,99497.66
2023-04-18T10:39:00.649Z,99490.09
2023-04-18T10:41:32.621Z,99498.56
2023-04-18T10:44:08.955Z,99513.16
2023-04-18T10:46:37.823Z,99507.00
2023-04-18T10:49:30.319Z,99506.06
2023-04-18T10:52:01.041Z,99497.16
2023-04-18T10:54:56.001Z,99504.13
2023-04-18T10:57:24.037Z,99501.81
2023-04-18T10:59:52.847Z,99521.00
2023-04-18T11:02:33.540Z,99519.38
2023-04-18T11:05:02.957Z,99513.56
2023-04-18T11:07:48.838Z,99509.53
2023-04-18T11:10:23.923Z,99513.44
2023-04-18T11:12:52.119Z,99515.88
2023-04-18T11:15:22.252Z,99516.47
2023-04-18T11:18:03.205Z,99512.03
2023-04-18T11:20:38.260Z,99502.63
2023-04-18T11:23:16.277Z,99516.19
2023-04-18T11:25:45.155Z,99512.19
2023-04-18T11:28:13.650Z,99516.03
2023-04-18T11:30:41.787Z,99513.50
2023-04-18T11:33:12.937Z,99496.25
2023-04-18T11:35:42.013Z,99488.31
2023-04-18T11:38:11.527Z,99480.63
2023-04-18T11:40:38.495Z,99488.59
2023-04-18T11:43:07.159Z,99476.31
2023-04-18T11:45:34.213Z,99473.22
2023-04-18T11:48:01.419Z,99468.50
2023-04-18T11:50:28.465Z,99460.84
2023-04-18T11:52:56.142Z,99455.22
2023-04-18T11:55:27.263Z,99439.59
2023-04-18T11:58:01.616Z,99436.09
2023-04-18T12:00:39.481Z,99439.91
2023-04-18T12:03:11.825Z,99433.16
2023-04-18T12:05:40.413Z,99431.19
2023-04-18T12:08:20.530Z,99420.53
2023-04-18T12:10:47.422Z,99418.78
2023-04-18T12:13:14.503Z,99402.91
2023-04-18T12:15:43.983Z,99402.69
2023-04-18T12:18:12.668Z,99391.28
2023-04-18T12:20:54.275Z,99379.56
2023-04-18T12:23:30.647Z,99381.19
2023-04-18T12:26:07.999Z,99371.53
2023-04-18T12:28:35.716Z,99363.44
2023-04-18T12:31:05.978Z,99368.41
2023-04-18T12:33:33.537Z,99364.28
2023-04-18T12:36:00.336Z,99366.66
2023-04-18T12:38:27.701Z,99349.13
2023-04-18T12:40:54.564Z,99353.78
2023-04-18T12:43:21.558Z,99347.31
2023-04-18T12:45:49.655Z,99349.50
2023-04-18T12:48:16.528Z,99344.28
2023-04-18T12:50:43.422Z,99339.19
2023-04-18T12:53:10.302Z,99346.72
2023-04-18T12:55:37.669Z,99354.03
2023-04-18T12:58:04.873Z,99353.56
2023-04-18T13:00:32.936Z,99360.78
2023-04-18T13:03:00.230Z,99357.97
2023-04-18T13:05:31.704Z,99358.22
2023-04-18T13:08:09.173Z,99349.41
2023-04-18T13:10:42.676Z,99357.59
2023-04-18T13:13:09.555Z,99356.47
2023-04-18T13:15:36.464Z,99362.16
2023-04-18T13:18:06.216Z,99363.81
2023-04-18T13:20:34.491Z,99359.25
2023-04-18T13:23:04.498Z,99358.13
2023-04-18T13:25:31.530Z,99355.38
2023-04-18T13:27:58.703Z,99351.34
2023-04-18T13:30:25.799Z,99364.13
2023-04-18T13:32:52.817Z,99357.44
2023-04-18T13:35:22.400Z,99348.75
2023-04-18T13:37:49.281Z,99364.22
2023-04-18T13:40:16.169Z,99377.19
2023-04-18T13:42:43.233Z,99367.44
2023-04-18T13:45:10.715Z,99367.03
2023-04-18T13:47:37.835Z,99370.38
2023-04-18T13:50:05.707Z,99368.72
2023-04-18T13:52:32.966Z,99373.34
2023-04-18T13:54:59.851Z,99371.06
2023-04-18T13:57:26.770Z,99366.81
2023-04-18T13:59:53.575Z,99367.41
2023-04-18T14:02:20.576Z,99373.38
2023-04-18T14:04:47.628Z,99371.66
2023-04-18T14:07:14.549Z,99369.31
2023-04-18T14:09:41.444Z,99363.75
2023-04-18T14:12:08.403Z,99361.34
2023-04-18T14:14:35.456Z,99362.91
2023-04-18T14:17:02.248Z,99358.56
2023-04-18T14:19:29.550Z,99346.72
2023-04-18T14:21:58.559Z,99340.56
2023-04-18T14:24:25.697Z,99346.09
2023-04-18T14:26:52.687Z,99345.81
2023-04-18T14:29:19.499Z,99341.78
2023-04-18T14:31:46.634Z,99341.53
2023-04-18T14:34:13.525Z,99338.22
2023-04-18T14:36:40.605Z,99331.59
2023-04-18T14:39:07.507Z,99339.56
2023-04-18T14:41:34.353Z,99330.50
2023-04-18T14:44:01.301Z,99321.84
2023-04-18T14:46:29.297Z,99325.56
2023-04-18T14:48:57.085Z,99330.59
2023-04-18T14:51:24.265Z,99324.53
2023-04-18T14:53:51.368Z,99329.38
2023-04-18T14:56:21.101Z,99317.00
2023-04-18T14:58:48.216Z,99325.28
2023-04-18T15:01:17.905Z,99321.25
2023-04-18T15:03:45.647Z,99324.91
2023-04-18T15:06:12.698Z,99329.38
2023-04-18T15:08:39.538Z,99330.22
2023-04-18T15:11:07.639Z,99334.56
2023-04-18T15:13:34.570Z,99325.72
2023-04-18T15:16:01.702Z,99339.16
2023-04-18T15:18:28.915Z,99345.81
2023-04-18T15:20:57.330Z,99346.88
2023-04-18T15:23:24.224Z,99342.53
2023-04-18T15:25:52.009Z,99345.50
2023-04-18T15:28:19.298Z,99341.03
2023-04-18T15:30:46.434Z,99340.72
2023-04-18T15:33:13.846Z,99342.41
2023-04-18T15:35:40.778Z,99321.81
2023-04-18T15:38:07.705Z,99332.03
2023-04-18T15:40:36.335Z,99333.81
2023-04-18T15:43:04.204Z,99328.91
2023-04-18T15:45:31.370Z,99334.22
2023-04-18T15:47:58.776Z,99338.66
2023-04-18T15:50:26.172Z,99334.78
2023-04-18T15:52:53.120Z,99335.84
2023-04-18T15:55:20.109Z,99347.84
2023-04-18T15:57:47.120Z,99334.06
2023-04-18T16:00:17.753Z,99349.16
2023-04-18T16:02:46.010Z,99365.53
2023-04-18T16:05:17.492Z,99364.56
2023-04-18T16:07:44.529Z,99365.69
2023-04-18T16:10:12.898Z,99369.34
2023-04-18T16:12:40.192Z,99365.31
2023-04-18T16:15:09.730Z,99371.75
2023-04-18T16:17:38.113Z,99385.13
2023-04-18T16:20:10.980Z,99385.00
2023-04-18T16:22:37.933Z,99393.78
2023-04-18T16:25:05.307Z,99392.56
2023-04-18T16:27:32.697Z,99386.41
2023-04-18T16:30:02.725Z,99400.69
2023-04-18T16:32:31.596Z,99396.38
2023-04-18T16:34:58.510Z,99398.50
2023-04-18T16:37:25.457Z,99373.72
2023-04-18T16:39:52.380Z,99395.81
2023-04-18T16:42:19.218Z,99397.22
2023-04-18T16:44:47.285Z,99401.44
2023-04-18T16:47:14.209Z,99406.19
2023-04-18T16:49:43.656Z,99413.41
2023-04-18T16:52:10.516Z,99418.16
2023-04-18T16:54:37.382Z,99417.63
2023-04-18T16:57:04.918Z,99423.63
2023-04-18T16:59:31.842Z,99427.78
2023-04-18T17:01:59.501Z,99428.03
2023-04-18T17:04:29.358Z,99422.63
2023-04-18T17:06:56.712Z,99431.09
2023-04-18T17:09:24.078Z,99429.50
2023-04-18T17:11:50.972Z,99409.22
2023-04-18T17:14:18.363Z,99419.44
2023-04-18T17:16:45.417Z,99423.78
2023-04-18T17:19:12.627Z,99411.50
2023-04-18T17:21:39.608Z,99417.66
2023-04-18T17:24:07.209Z,99413.50
2023-04-18T17:26:35.793Z,99428.00
2023-04-18T17:29:06.400Z,99426.91
2023-04-18T17:31:33.536Z,99424.78
2023-04-18T17:34:00.789Z,99421.47
2023-04-18T17:36:27.839Z,99420.44
2023-04-18T17:38:54.874Z,99417.88
2023-04-18T17:41:22.361Z,99422.34
2023-04-18T17:43:51.120Z,99429.09
2023-04-18T17:46:18.328Z,99419.88
2023-04-18T17:48:45.468Z,99427.75
2023-04-18T17:51:12.453Z,99419.88
2023-04-18T17:53:39.295Z,99420.69
2023-04-18T17:56:06.304Z,99408.66
2023-04-18T17:58:33.227Z,99411.72
2023-04-18T18:01:00.091Z,99421.53
2023-04-18T18:03:27.219Z,99415.25
2023-04-18T18:05:55.136Z,99422.50
2023-04-18T18:08:22.785Z,99422.66
2023-04-18T18:10:50.050Z,99430.31
2023-04-18T18:13:17.073Z,99412.44
2023-04-18T18:15:43.988Z,99422.66
2023-04-18T18:18:11.087Z,99427.94
2023-04-18T18:20:38.021Z,99427.94
2023-04-18T18:23:04.956Z,99421.19
2023-04-18T18:25:31.760Z,99420.19
2023-04-18T18:27:58.621Z,99421.66
2023-04-18T18:30:25.503Z,99422.50
2023-04-18T18:32:53.557Z,99421.06
2023-04-18T18:35:20.792Z,99417.38
2023-04-18T18:37:48.065Z,99421.72
2023-04-18T18:40:15.131Z,99421.13
2023-04-18T18:42:42.637Z,99421.34
2023-04-18T18:45:10.421Z,99422.69
2023-04-18T18:47:39.657Z,99417.09
2023-04-18T18:50:07.292Z,99406.22
2023-04-18T18:52:34.247Z,99404.81
2023-04-18T18:55:01.478Z,99402.03
2023-04-18T18:57:28.493Z,99399.97
2023-04-18T18:59:56.083Z,99405.13
2023-04-18T19:02:23.416Z,99401.81
2023-04-18T19:04:50.820Z,99389.63
2023-04-18T19:07:17.979Z,99395.50
2023-04-18T19:09:46.471Z,99395.50
2023-04-18T19:12:13.364Z,99407.88
2023-04-18T19:14:42.293Z,99401.63
2023-04-18T19:17:09.414Z,99398.84
2023-04-18T19:19:36.340Z,99394.34
2023-04-18T19:22:03.292Z,99393.94
2023-04-18T19:24:32.097Z,99384.75
2023-04-18T19:26:59.824Z,99387.69
2023-04-18T19:29:27.097Z,99392.59
2023-04-18T19:31:54.078Z,99403.06
2023-04-18T19:34:22.285Z,99401.94
2023-04-18T19:36:49.268Z,99401.78
2023-04-18T19:39:16.580Z,99402.25
2023-04-18T19:41:43.634Z,99394.81
2023-04-18T19:44:10.550Z,99393.72
2023-04-18T19:46:37.461Z,99392.66
2023-04-18T19:49:04.472Z,99395.31
2023-04-18T19:51:31.470Z,99400.16
2023-04-18T19:53:58.429Z,99409.31
2023-04-18T19:56:25.236Z,99408.31
2023-04-18T19:58:52.116Z,99413.03
2023-04-18T20:01:20.294Z,99413.59
2023-04-18T20:03:48.183Z,99414.03
2023-04-18T20:06:16.392Z,99412.34
2023-04-18T20:08:44.538Z,99412.06
2023-04-18T20:11:14.017Z,99415.53
2023-04-18T20:13:41.634Z,99425.59
2023-04-18T20:16:09.520Z,99416.94
2023-04-18T20:18:41.664Z,99425.75
2023-04-18T20:21:10.096Z,99416.69
2023-04-18T20:23:37.500Z,99405.56
2023-04-18T20:26:04.761Z,99413.75
2023-04-18T20:28:32.129Z,99419.72
2023-04-18T20:31:03.262Z,99408.94
2023-04-18T20:33:31.208Z,99392.59
2023-04-18T20:35:59.049Z,99397.00
2023-04-18T20:38:32.753Z,99391.28
2023-04-18T20:41:02.439Z,99391.06
2023-04-18T20:43:29.344Z,99393.16
2023-04-18T20:45:58.842Z,99395.31
2023-04-18T20:48:25.854Z,99383.22
2023-04-18T20:50:52.934Z,99390.78
2023-04-18T20:53:21.171Z,99388.25
2023-04-18T20:55:48.904Z,99390.97
2023-04-18T20:58:15.890Z,99385.47
2023-04-18T21:00:46.631Z,99386.53
2023-04-18T21:03:14.162Z,99387.84
2023-04-18T21:05:41.108Z,99387.00
2023-04-18T21:08:08.021Z,99378.88
2023-04-18T21:10:34.865Z,99374.59
2023-04-18T21:13:01.691Z,99367.63
2023-04-18T21:15:28.623Z,99355.75
2023-04-18T21:17:56.046Z,99364.41
2023-04-18T21:20:23.046Z,99360.25
2023-04-18T21:22:49.831Z,99358.59
2023-04-18T21:25:17.015Z,99363.16
2023-04-18T21:27:43.952Z,99355.78
2023-04-18T21:30:11.198Z,99353.53
2023-04-18T21:32:38.230Z,99353.78
2023-04-18T21:35:05.413Z,99350.97
2023-04-18T21:37:32.332Z,99351.84
2023-04-18T21:39:59.136Z,99357.00
2023-04-18T21:42:26.999Z,99349.69
2023-04-18T21:44:54.931Z,99356.94
2023-04-18T21:47:22.209Z,99359.31
2023-04-18T21:49:49.564Z,99359.88
2023-04-18T21:52:16.447Z,99359.31
2023-04-18T21:54:43.507Z,99353.91
2023-04-18T21:57:10.317Z,99357.38
2023-04-18T21:59:37.126Z,99353.19
2023-04-18T22:05:01.641Z,99340.78
2023-04-18T22:07:29.692Z,99339.94
2023-04-18T22:09:58.615Z,99333.81
2023-04-18T22:12:26.526Z,99336.59
2023-04-18T22:14:53.463Z,99338.09
2023-04-18T22:17:22.144Z,99338.81
2023-04-18T22:19:50.503Z,99335.72
2023-04-18T22:22:17.440Z,99336.66
2023-04-18T22:24:46.818Z,99328.28
2023-04-18T22:27:14.550Z,99327.31
2023-04-18T22:29:41.385Z,99325.91
2023-04-18T22:32:08.274Z,99327.19
2023-04-18T22:34:35.085Z,99320.78
2023-04-18T22:37:01.907Z,99322.97
2023-04-18T22:39:28.892Z,99311.56
2023-04-18T22:41:55.721Z,99304.34
2023-04-18T22:44:22.696Z,99307.81
2023-04-18T22:46:49.571Z,99305.28
2023-04-18T22:49:18.066Z,99314.47
2023-04-18T22:51:46.503Z,99309.50
2023-04-18T22:54:13.622Z,99298.06
2023-04-18T22:56:40.550Z,99296.69
2023-04-18T22:59:07.418Z,99299.06
2023-04-18T23:01:34.321Z,99291.13
2023-04-18T23:04:01.564Z,99306.63
2023-04-18T23:06:30.016Z,99301.19
2023-04-18T23:08:57.077Z,99298.09
2023-04-18T23:11:24.678Z,99307.72
2023-04-18T23:13:51.480Z,99296.94
2023-04-18T23:16:18.402Z,99296.66
2023-04-18T23:18:45.328Z,99293.81
2023-04-18T23:21:12.430Z,99298.31
2023-04-18T23:23:39.267Z,99297.09
2023-04-18T23:26:14.081Z,99296.38
2023-04-18T23:28:42.419Z,99291.78
2023-04-18T23:31:09.986Z,99289.13
2023-04-18T23:33:37.026Z,99285.06
2023-04-18T23:36:04.108Z,99289.78
2023-04-18T23:38:31.122Z,99289.53
2023-04-18T23:40:58.171Z,99279.47
2023-04-18T23:43:25.104Z,99278.50
2023-04-18T23:45:51.950Z,99272.63
2023-04-18T23:48:18.778Z,99276.66
2023-04-18T23:50:46.986Z,99269.97
2023-04-18T23:53:14.033Z,99262.13
2023-04-18T23:55:40.856Z,99270.59
2023-04-18T23:58:07.711Z,99267.94
